sensor_id;sensor_type;location;lat;lon;timestamp;P1;durP1;ratioP1;P2;durP2;ratioP2
21675;SDS011;10999;51.332;9.458;2023-11-19T00:00:08;6.05;;;2.47;;
21675;SDS011;10999;51.332;9.458;2023-11-19T00:02:39;6.35;;;2.47;;
21675;SDS011;10999;51.332;9.458;2023-11-19T00:05:07;5.38;;;2.22;;
21675;SDS011;10999;51.332;9.458;2023-11-19T00:07:40;6.10;;;2.38;;
21675;SDS011;10999;51.332;9.458;2023-11-19T00:10:11;5.90;;;2.63;;
21675;SDS011;10999;51.332;9.458;2023-11-19T00:12:40;6.38;;;2.28;;
21675;SDS011;10999;51.332;9.458;2023-11-19T00:15:10;5.07;;;2.35;;
21675;SDS011;10999;51.332;9.458;2023-11-19T00:17:40;7.20;;;2.72;;
21675;SDS011;10999;51.332;9.458;2023-11-19T00:20:14;5.25;;;2.33;;
21675;SDS011;10999;51.332;9.458;2023-11-19T00:22:42;6.43;;;2.78;;
21675;SDS011;10999;51.332;9.458;2023-11-19T00:25:12;6.95;;;2.40;;
21675;SDS011;10999;51.332;9.458;2023-11-19T00:27:39;6.25;;;2.30;;
21675;SDS011;10999;51.332;9.458;2023-11-19T00:30:06;6.03;;;2.63;;
21675;SDS011;10999;51.332;9.458;2023-11-19T00:32:34;5.20;;;2.20;;
21675;SDS011;10999;51.332;9.458;2023-11-19T00:35:02;6.60;;;2.63;;
21675;SDS011;10999;51.332;9.458;2023-11-19T00:37:29;5.88;;;2.17;;
21675;SDS011;10999;51.332;9.458;2023-11-19T00:39:55;5.88;;;2.72;;
21675;SDS011;10999;51.332;9.458;2023-11-19T00:42:22;7.45;;;2.90;;
21675;SDS011;10999;51.332;9.458;2023-11-19T00:44:50;5.97;;;2.60;;
21675;SDS011;10999;51.332;9.458;2023-11-19T00:47:17;6.97;;;3.13;;
21675;SDS011;10999;51.332;9.458;2023-11-19T00:49:49;6.32;;;2.97;;
21675;SDS011;10999;51.332;9.458;2023-11-19T00:52:17;6.40;;;3.20;;
21675;SDS011;10999;51.332;9.458;2023-11-19T00:54:44;7.20;;;3.30;;
21675;SDS011;10999;51.332;9.458;2023-11-19T00:57:11;6.53;;;3.13;;
21675;SDS011;10999;51.332;9.458;2023-11-19T00:59:38;7.72;;;3.45;;
21675;SDS011;10999;51.332;9.458;2023-11-19T01:02:08;7.03;;;3.20;;
21675;SDS011;10999;51.332;9.458;2023-11-19T01:04:35;5.30;;;2.38;;
21675;SDS011;10999;51.332;9.458;2023-11-19T01:07:03;6.40;;;2.85;;
21675;SDS011;10999;51.332;9.458;2023-11-19T01:09:34;5.88;;;2.67;;
21675;SDS011;10999;51.332;9.458;2023-11-19T01:12:02;6.85;;;2.97;;
21675;SDS011;10999;51.332;9.458;2023-11-19T01:14:29;5.65;;;2.70;;
21675;SDS011;10999;51.332;9.458;2023-11-19T01:16:56;6.75;;;2.60;;
21675;SDS011;10999;51.332;9.458;2023-11-19T01:19:24;6.85;;;2.67;;
21675;SDS011;10999;51.332;9.458;2023-11-19T01:21:50;7.03;;;2.75;;
21675;SDS011;10999;51.332;9.458;2023-11-19T01:24:17;6.25;;;2.40;;
21675;SDS011;10999;51.332;9.458;2023-11-19T01:26:44;6.65;;;2.13;;
21675;SDS011;10999;51.332;9.458;2023-11-19T01:29:12;5.70;;;2.45;;
21675;SDS011;10999;51.332;9.458;2023-11-19T01:31:42;7.47;;;2.63;;
21675;SDS011;10999;51.332;9.458;2023-11-19T01:34:10;6.93;;;2.58;;
21675;SDS011;10999;51.332;9.458;2023-11-19T01:36:38;5.55;;;2.33;;
21675;SDS011;10999;51.332;9.458;2023-11-19T01:39:05;7.07;;;3.03;;
21675;SDS011;10999;51.332;9.458;2023-11-19T01:41:36;6.68;;;2.90;;
21675;SDS011;10999;51.332;9.458;2023-11-19T01:44:03;6.85;;;3.00;;
21675;SDS011;10999;51.332;9.458;2023-11-19T01:46:31;6.10;;;2.90;;
21675;SDS011;10999;51.332;9.458;2023-11-19T01:48:59;7.13;;;2.90;;
21675;SDS011;10999;51.332;9.458;2023-11-19T01:51:27;7.25;;;2.90;;
21675;SDS011;10999;51.332;9.458;2023-11-19T01:53:54;6.80;;;2.90;;
21675;SDS011;10999;51.332;9.458;2023-11-19T01:56:23;7.25;;;2.97;;
21675;SDS011;10999;51.332;9.458;2023-11-19T01:58:51;7.45;;;2.83;;
21675;SDS011;10999;51.332;9.458;2023-11-19T02:01:20;6.40;;;2.88;;
21675;SDS011;10999;51.332;9.458;2023-11-19T02:03:48;6.63;;;2.83;;
21675;SDS011;10999;51.332;9.458;2023-11-19T02:06:15;7.55;;;3.00;;
21675;SDS011;10999;51.332;9.458;2023-11-19T02:08:42;7.75;;;3.58;;
21675;SDS011;10999;51.332;9.458;2023-11-19T02:11:12;6.82;;;2.92;;
21675;SDS011;10999;51.332;9.458;2023-11-19T02:13:39;7.47;;;3.13;;
21675;SDS011;10999;51.332;9.458;2023-11-19T02:16:07;7.78;;;3.30;;
21675;SDS011;10999;51.332;9.458;2023-11-19T02:18:37;9.10;;;3.13;;
21675;SDS011;10999;51.332;9.458;2023-11-19T02:21:04;8.55;;;3.47;;
21675;SDS011;10999;51.332;9.458;2023-11-19T02:23:31;11.38;;;3.88;;
21675;SDS011;10999;51.332;9.458;2023-11-19T02:29:18;7.60;;;3.50;;
21675;SDS011;10999;51.332;9.458;2023-11-19T02:31:44;8.52;;;3.72;;
21675;SDS011;10999;51.332;9.458;2023-11-19T02:34:12;9.85;;;3.75;;
21675;SDS011;10999;51.332;9.458;2023-11-19T02:36:39;10.27;;;3.80;;
21675;SDS011;10999;51.332;9.458;2023-11-19T02:39:07;8.93;;;3.92;;
21675;SDS011;10999;51.332;9.458;2023-11-19T02:41:38;8.32;;;3.58;;
21675;SDS011;10999;51.332;9.458;2023-11-19T02:44:06;7.85;;;3.58;;
21675;SDS011;10999;51.332;9.458;2023-11-19T02:46:33;9.35;;;3.72;;
21675;SDS011;10999;51.332;9.458;2023-11-19T02:49:00;9.57;;;3.95;;
21675;SDS011;10999;51.332;9.458;2023-11-19T02:51:27;10.15;;;3.88;;
21675;SDS011;10999;51.332;9.458;2023-11-19T02:53:54;10.35;;;4.55;;
21675;SDS011;10999;51.332;9.458;2023-11-19T02:56:21;11.75;;;4.70;;
21675;SDS011;10999;51.332;9.458;2023-11-19T02:58:55;9.55;;;4.00;;
21675;SDS011;10999;51.332;9.458;2023-11-19T03:01:25;10.60;;;4.55;;
21675;SDS011;10999;51.332;9.458;2023-11-19T03:04:00;12.45;;;4.72;;
21675;SDS011;10999;51.332;9.458;2023-11-19T03:06:29;10.02;;;4.60;;
21675;SDS011;10999;51.332;9.458;2023-11-19T03:08:56;12.57;;;5.70;;
21675;SDS011;10999;51.332;9.458;2023-11-19T03:11:23;9.88;;;4.32;;
21675;SDS011;10999;51.332;9.458;2023-11-19T03:13:51;12.68;;;4.95;;
21675;SDS011;10999;51.332;9.458;2023-11-19T03:16:17;12.52;;;5.38;;
21675;SDS011;10999;51.332;9.458;2023-11-19T03:18:44;11.30;;;4.45;;
21675;SDS011;10999;51.332;9.458;2023-11-19T03:21:11;10.30;;;4.22;;
21675;SDS011;10999;51.332;9.458;2023-11-19T03:23:38;9.82;;;4.50;;
21675;SDS011;10999;51.332;9.458;2023-11-19T03:26:06;9.45;;;4.35;;
21675;SDS011;10999;51.332;9.458;2023-11-19T03:28:34;10.32;;;4.60;;
21675;SDS011;10999;51.332;9.458;2023-11-19T03:31:01;9.40;;;4.05;;
21675;SDS011;10999;51.332;9.458;2023-11-19T03:33:30;9.65;;;4.13;;
21675;SDS011;10999;51.332;9.458;2023-11-19T03:35:57;9.65;;;3.60;;
21675;SDS011;10999;51.332;9.458;2023-11-19T03:38:24;7.68;;;3.72;;
21675;SDS011;10999;51.332;9.458;2023-11-19T03:40:51;9.18;;;3.63;;
21675;SDS011;10999;51.332;9.458;2023-11-19T03:43:18;9.07;;;4.20;;
21675;SDS011;10999;51.332;9.458;2023-11-19T03:45:47;7.97;;;3.33;;
21675;SDS011;10999;51.332;9.458;2023-11-19T03:48:14;8.40;;;3.97;;
21675;SDS011;10999;51.332;9.458;2023-11-19T03:50:45;8.23;;;3.20;;
21675;SDS011;10999;51.332;9.458;2023-11-19T03:53:12;5.80;;;2.38;;
21675;SDS011;10999;51.332;9.458;2023-11-19T03:55:38;6.28;;;2.25;;
21675;SDS011;10999;51.332;9.458;2023-11-19T03:58:05;6.00;;;2.38;;
21675;SDS011;10999;51.332;9.458;2023-11-19T04:00:32;5.43;;;2.10;;
21675;SDS011;10999;51.332;9.458;2023-11-19T04:02:59;6.07;;;2.47;;
21675;SDS011;10999;51.332;9.458;2023-11-19T04:05:26;5.60;;;2.22;;
21675;SDS011;10999;51.332;9.458;2023-11-19T04:07:53;6.40;;;2.55;;
21675;SDS011;10999;51.332;9.458;2023-11-19T04:10:23;7.90;;;2.83;;
21675;SDS011;10999;51.332;9.458;2023-11-19T04:12:50;7.45;;;2.97;;
21675;SDS011;10999;51.332;9.458;2023-11-19T04:15:16;7.28;;;3.35;;
21675;SDS011;10999;51.332;9.458;2023-11-19T04:17:43;8.00;;;3.20;;
21675;SDS011;10999;51.332;9.458;2023-11-19T04:20:11;7.40;;;3.03;;
21675;SDS011;10999;51.332;9.458;2023-11-19T04:22:40;8.18;;;3.33;;
21675;SDS011;10999;51.332;9.458;2023-11-19T04:25:07;7.80;;;3.30;;
21675;SDS011;10999;51.332;9.458;2023-11-19T04:27:34;8.75;;;3.30;;
21675;SDS011;10999;51.332;9.458;2023-11-19T04:30:01;8.52;;;3.60;;
21675;SDS011;10999;51.332;9.458;2023-11-19T04:32:29;8.50;;;3.63;;
21675;SDS011;10999;51.332;9.458;2023-11-19T04:34:56;9.07;;;4.15;;
21675;SDS011;10999;51.332;9.458;2023-11-19T04:37:23;9.13;;;4.07;;
21675;SDS011;10999;51.332;9.458;2023-11-19T04:39:50;8.88;;;3.95;;
21675;SDS011;10999;51.332;9.458;2023-11-19T04:42:17;9.07;;;3.63;;
21675;SDS011;10999;51.332;9.458;2023-11-19T04:44:44;8.65;;;3.65;;
21675;SDS011;10999;51.332;9.458;2023-11-19T04:47:11;9.60;;;3.72;;
21675;SDS011;10999;51.332;9.458;2023-11-19T04:49:41;8.07;;;3.33;;
21675;SDS011;10999;51.332;9.458;2023-11-19T04:54:41;7.28;;;2.80;;
21675;SDS011;10999;51.332;9.458;2023-11-19T04:57:12;7.78;;;2.92;;
21675;SDS011;10999;51.332;9.458;2023-11-19T04:59:39;7.88;;;3.13;;
21675;SDS011;10999;51.332;9.458;2023-11-19T05:02:08;9.60;;;3.33;;
21675;SDS011;10999;51.332;9.458;2023-11-19T05:04:35;7.47;;;3.00;;
21675;SDS011;10999;51.332;9.458;2023-11-19T05:07:01;8.13;;;3.05;;
21675;SDS011;10999;51.332;9.458;2023-11-19T05:09:30;8.70;;;3.45;;
21675;SDS011;10999;51.332;9.458;2023-11-19T05:11:57;9.50;;;3.65;;
21675;SDS011;10999;51.332;9.458;2023-11-19T05:14:24;6.63;;;2.80;;
21675;SDS011;10999;51.332;9.458;2023-11-19T05:16:51;9.18;;;3.22;;
21675;SDS011;10999;51.332;9.458;2023-11-19T05:19:18;7.28;;;3.00;;
21675;SDS011;10999;51.332;9.458;2023-11-19T05:21:44;9.00;;;3.53;;
21675;SDS011;10999;51.332;9.458;2023-11-19T05:24:11;7.50;;;3.08;;
21675;SDS011;10999;51.332;9.458;2023-11-19T05:26:38;8.63;;;3.28;;
21675;SDS011;10999;51.332;9.458;2023-11-19T05:29:05;9.75;;;3.72;;
21675;SDS011;10999;51.332;9.458;2023-11-19T05:31:32;9.02;;;3.35;;
21675;SDS011;10999;51.332;9.458;2023-11-19T05:34:02;8.02;;;3.35;;
21675;SDS011;10999;51.332;9.458;2023-11-19T05:36:29;9.80;;;3.50;;
21675;SDS011;10999;51.332;9.458;2023-11-19T05:38:56;9.40;;;3.40;;
21675;SDS011;10999;51.332;9.458;2023-11-19T05:41:22;8.23;;;3.35;;
21675;SDS011;10999;51.332;9.458;2023-11-19T05:43:49;9.63;;;3.17;;
21675;SDS011;10999;51.332;9.458;2023-11-19T05:46:16;7.07;;;3.20;;
21675;SDS011;10999;51.332;9.458;2023-11-19T05:48:45;7.65;;;3.28;;
21675;SDS011;10999;51.332;9.458;2023-11-19T05:51:13;8.77;;;3.20;;
21675;SDS011;10999;51.332;9.458;2023-11-19T05:53:41;12.18;;;3.80;;
21675;SDS011;10999;51.332;9.458;2023-11-19T05:56:08;8.38;;;3.50;;
21675;SDS011;10999;51.332;9.458;2023-11-19T05:58:36;6.78;;;3.03;;
21675;SDS011;10999;51.332;9.458;2023-11-19T06:01:03;9.13;;;3.47;;
21675;SDS011;10999;51.332;9.458;2023-11-19T06:03:31;8.77;;;3.20;;
21675;SDS011;10999;51.332;9.458;2023-11-19T06:05:58;8.48;;;3.40;;
21675;SDS011;10999;51.332;9.458;2023-11-19T06:08:25;9.68;;;3.55;;
21675;SDS011;10999;51.332;9.458;2023-11-19T06:10:53;8.07;;;3.35;;
21675;SDS011;10999;51.332;9.458;2023-11-19T06:13:20;7.30;;;2.88;;
21675;SDS011;10999;51.332;9.458;2023-11-19T06:15:50;7.25;;;3.17;;
21675;SDS011;10999;51.332;9.458;2023-11-19T06:18:17;8.30;;;2.83;;
21675;SDS011;10999;51.332;9.458;2023-11-19T06:20:46;7.95;;;3.22;;
21675;SDS011;10999;51.332;9.458;2023-11-19T06:23:13;8.90;;;3.55;;
21675;SDS011;10999;51.332;9.458;2023-11-19T06:25:40;8.00;;;3.17;;
21675;SDS011;10999;51.332;9.458;2023-11-19T06:28:07;8.18;;;3.28;;
21675;SDS011;10999;51.332;9.458;2023-11-19T06:30:34;8.00;;;2.80;;
21675;SDS011;10999;51.332;9.458;2023-11-19T06:33:02;7.38;;;3.25;;
21675;SDS011;10999;51.332;9.458;2023-11-19T06:35:30;7.25;;;3.15;;
21675;SDS011;10999;51.332;9.458;2023-11-19T06:38:04;5.85;;;2.42;;
21675;SDS011;10999;51.332;9.458;2023-11-19T06:40:34;7.55;;;3.00;;
21675;SDS011;10999;51.332;9.458;2023-11-19T06:45:30;6.55;;;2.50;;
21675;SDS011;10999;51.332;9.458;2023-11-19T06:47:57;5.60;;;2.38;;
21675;SDS011;10999;51.332;9.458;2023-11-19T06:50:27;5.50;;;2.22;;
21675;SDS011;10999;51.332;9.458;2023-11-19T06:52:54;5.82;;;2.20;;
21675;SDS011;10999;51.332;9.458;2023-11-19T06:55:20;6.93;;;2.60;;
21675;SDS011;10999;51.332;9.458;2023-11-19T06:57:47;6.93;;;2.78;;
21675;SDS011;10999;51.332;9.458;2023-11-19T07:00:14;7.28;;;2.80;;
21675;SDS011;10999;51.332;9.458;2023-11-19T07:02:41;8.30;;;2.90;;
21675;SDS011;10999;51.332;9.458;2023-11-19T07:05:08;6.82;;;2.55;;
21675;SDS011;10999;51.332;9.458;2023-11-19T07:07:35;8.57;;;3.08;;
21675;SDS011;10999;51.332;9.458;2023-11-19T07:10:02;7.35;;;2.70;;
21675;SDS011;10999;51.332;9.458;2023-11-19T07:12:30;7.10;;;2.67;;
21675;SDS011;10999;51.332;9.458;2023-11-19T07:14:57;6.85;;;2.28;;
21675;SDS011;10999;51.332;9.458;2023-11-19T07:17:24;6.13;;;2.33;;
21675;SDS011;10999;51.332;9.458;2023-11-19T07:19:51;9.00;;;2.53;;
21675;SDS011;10999;51.332;9.458;2023-11-19T07:22:18;6.25;;;2.95;;
21675;SDS011;10999;51.332;9.458;2023-11-19T07:24:44;7.80;;;3.20;;
21675;SDS011;10999;51.332;9.458;2023-11-19T07:27:11;7.55;;;3.20;;
21675;SDS011;10999;51.332;9.458;2023-11-19T07:29:45;9.07;;;2.85;;
21675;SDS011;10999;51.332;9.458;2023-11-19T07:32:12;8.00;;;3.10;;
21675;SDS011;10999;51.332;9.458;2023-11-19T07:34:39;6.22;;;2.63;;
21675;SDS011;10999;51.332;9.458;2023-11-19T07:37:06;8.10;;;3.17;;
21675;SDS011;10999;51.332;9.458;2023-11-19T07:39:33;7.20;;;2.72;;
21675;SDS011;10999;51.332;9.458;2023-11-19T07:42:01;6.93;;;2.58;;
21675;SDS011;10999;51.332;9.458;2023-11-19T07:44:28;7.18;;;2.65;;
21675;SDS011;10999;51.332;9.458;2023-11-19T07:46:55;7.53;;;3.30;;
21675;SDS011;10999;51.332;9.458;2023-11-19T07:49:22;7.82;;;3.30;;
21675;SDS011;10999;51.332;9.458;2023-11-19T07:51:48;9.50;;;3.28;;
21675;SDS011;10999;51.332;9.458;2023-11-19T07:54:15;8.35;;;2.97;;
21675;SDS011;10999;51.332;9.458;2023-11-19T07:56:42;8.40;;;3.80;;
21675;SDS011;10999;51.332;9.458;2023-11-19T07:59:09;7.47;;;2.95;;
21675;SDS011;10999;51.332;9.458;2023-11-19T08:01:35;10.27;;;2.97;;
21675;SDS011;10999;51.332;9.458;2023-11-19T08:04:02;7.15;;;3.10;;
21675;SDS011;10999;51.332;9.458;2023-11-19T08:06:29;6.68;;;2.83;;
21675;SDS011;10999;51.332;9.458;2023-11-19T08:08:56;6.60;;;2.50;;
21675;SDS011;10999;51.332;9.458;2023-11-19T08:11:23;7.25;;;2.33;;
21675;SDS011;10999;51.332;9.458;2023-11-19T08:13:50;6.93;;;2.30;;
21675;SDS011;10999;51.332;9.458;2023-11-19T08:16:17;5.60;;;1.95;;
21675;SDS011;10999;51.332;9.458;2023-11-19T08:18:44;4.97;;;1.75;;
21675;SDS011;10999;51.332;9.458;2023-11-19T08:21:10;4.95;;;1.55;;
21675;SDS011;10999;51.332;9.458;2023-11-19T08:23:37;8.13;;;1.83;;
21675;SDS011;10999;51.332;9.458;2023-11-19T08:26:05;7.95;;;2.00;;
21675;SDS011;10999;51.332;9.458;2023-11-19T08:28:33;7.13;;;1.85;;
21675;SDS011;10999;51.332;9.458;2023-11-19T08:31:01;6.45;;;1.63;;
21675;SDS011;10999;51.332;9.458;2023-11-19T08:33:30;7.05;;;1.75;;
21675;SDS011;10999;51.332;9.458;2023-11-19T08:35:57;8.32;;;2.15;;
21675;SDS011;10999;51.332;9.458;2023-11-19T08:38:24;10.30;;;2.30;;
21675;SDS011;10999;51.332;9.458;2023-11-19T08:40:54;7.72;;;2.38;;
21675;SDS011;10999;51.332;9.458;2023-11-19T08:43:26;12.35;;;2.50;;
21675;SDS011;10999;51.332;9.458;2023-11-19T08:45:53;10.73;;;1.88;;
21675;SDS011;10999;51.332;9.458;2023-11-19T08:48:20;6.57;;;2.17;;
21675;SDS011;10999;51.332;9.458;2023-11-19T08:50:47;6.47;;;2.28;;
21675;SDS011;10999;51.332;9.458;2023-11-19T08:53:14;12.00;;;2.35;;
21675;SDS011;10999;51.332;9.458;2023-11-19T08:55:41;10.23;;;1.92;;
21675;SDS011;10999;51.332;9.458;2023-11-19T08:58:08;14.52;;;1.88;;
21675;SDS011;10999;51.332;9.458;2023-11-19T09:00:35;12.68;;;2.45;;
21675;SDS011;10999;51.332;9.458;2023-11-19T09:03:02;9.20;;;1.92;;
21675;SDS011;10999;51.332;9.458;2023-11-19T09:05:30;9.90;;;1.92;;
21675;SDS011;10999;51.332;9.458;2023-11-19T09:07:57;12.05;;;2.33;;
21675;SDS011;10999;51.332;9.458;2023-11-19T09:10:23;12.48;;;1.83;;
21675;SDS011;10999;51.332;9.458;2023-11-19T09:12:50;6.78;;;2.00;;
21675;SDS011;10999;51.332;9.458;2023-11-19T09:15:17;9.82;;;1.60;;
21675;SDS011;10999;51.332;9.458;2023-11-19T09:17:44;9.88;;;1.85;;
21675;SDS011;10999;51.332;9.458;2023-11-19T09:20:12;7.18;;;1.67;;
21675;SDS011;10999;51.332;9.458;2023-11-19T09:22:41;7.50;;;1.23;;
21675;SDS011;10999;51.332;9.458;2023-11-19T09:25:08;7.93;;;1.30;;
21675;SDS011;10999;51.332;9.458;2023-11-19T09:27:35;8.00;;;1.83;;
21675;SDS011;10999;51.332;9.458;2023-11-19T09:30:02;7.30;;;1.45;;
21675;SDS011;10999;51.332;9.458;2023-11-19T09:32:30;7.90;;;1.77;;
21675;SDS011;10999;51.332;9.458;2023-11-19T09:34:57;7.45;;;1.50;;
21675;SDS011;10999;51.332;9.458;2023-11-19T09:37:24;10.90;;;2.50;;
21675;SDS011;10999;51.332;9.458;2023-11-19T09:39:51;12.57;;;2.28;;
21675;SDS011;10999;51.332;9.458;2023-11-19T09:42:17;8.98;;;1.50;;
21675;SDS011;10999;51.332;9.458;2023-11-19T09:44:45;9.40;;;1.67;;
21675;SDS011;10999;51.332;9.458;2023-11-19T09:47:14;13.95;;;2.42;;
21675;SDS011;10999;51.332;9.458;2023-11-19T09:49:42;9.63;;;1.58;;
21675;SDS011;10999;51.332;9.458;2023-11-19T09:52:10;9.57;;;1.33;;
21675;SDS011;10999;51.332;9.458;2023-11-19T09:54:37;6.38;;;1.50;;
21675;SDS011;10999;51.332;9.458;2023-11-19T09:57:03;15.68;;;1.85;;
21675;SDS011;10999;51.332;9.458;2023-11-19T09:59:33;14.15;;;2.75;;
21675;SDS011;10999;51.332;9.458;2023-11-19T10:02:00;6.80;;;1.17;;
21675;SDS011;10999;51.332;9.458;2023-11-19T10:04:29;9.00;;;1.70;;
21675;SDS011;10999;51.332;9.458;2023-11-19T10:06:59;12.50;;;2.28;;
21675;SDS011;10999;51.332;9.458;2023-11-19T10:09:26;8.20;;;1.42;;
21675;SDS011;10999;51.332;9.458;2023-11-19T10:11:53;13.48;;;2.40;;
21675;SDS011;10999;51.332;9.458;2023-11-19T10:14:20;10.30;;;1.52;;
21675;SDS011;10999;51.332;9.458;2023-11-19T10:16:50;10.15;;;2.33;;
21675;SDS011;10999;51.332;9.458;2023-11-19T10:19:20;12.43;;;2.60;;
21675;SDS011;10999;51.332;9.458;2023-11-19T10:21:47;7.55;;;1.63;;
21675;SDS011;10999;51.332;9.458;2023-11-19T10:24:14;9.70;;;1.25;;
21675;SDS011;10999;51.332;9.458;2023-11-19T10:26:56;12.93;;;1.80;;
21675;SDS011;10999;51.332;9.458;2023-11-19T10:29:24;8.52;;;1.60;;
21675;SDS011;10999;51.332;9.458;2023-11-19T10:31:56;5.97;;;1.17;;
21675;SDS011;10999;51.332;9.458;2023-11-19T10:34:43;10.15;;;2.30;;
21675;SDS011;10999;51.332;9.458;2023-11-19T10:37:26;17.63;;;2.28;;
21675;SDS011;10999;51.332;9.458;2023-11-19T10:39:55;12.25;;;2.20;;
21675;SDS011;10999;51.332;9.458;2023-11-19T10:42:22;11.48;;;2.05;;
21675;SDS011;10999;51.332;9.458;2023-11-19T10:44:49;10.52;;;1.60;;
21675;SDS011;10999;51.332;9.458;2023-11-19T10:47:18;9.75;;;1.58;;
21675;SDS011;10999;51.332;9.458;2023-11-19T10:50:03;8.70;;;1.48;;
21675;SDS011;10999;51.332;9.458;2023-11-19T10:52:30;10.63;;;1.70;;
21675;SDS011;10999;51.332;9.458;2023-11-19T10:54:57;9.40;;;1.90;;
21675;SDS011;10999;51.332;9.458;2023-11-19T10:57:28;12.77;;;2.17;;
21675;SDS011;10999;51.332;9.458;2023-11-19T11:00:00;8.70;;;1.63;;
21675;SDS011;10999;51.332;9.458;2023-11-19T11:02:36;11.00;;;2.00;;
21675;SDS011;10999;51.332;9.458;2023-11-19T11:05:08;11.20;;;1.92;;
21675;SDS011;10999;51.332;9.458;2023-11-19T11:07:35;10.90;;;1.77;;
21675;SDS011;10999;51.332;9.458;2023-11-19T11:10:07;8.00;;;1.20;;
21675;SDS011;10999;51.332;9.458;2023-11-19T11:12:36;6.57;;;1.98;;
21675;SDS011;10999;51.332;9.458;2023-11-19T11:15:08;9.10;;;1.80;;
21675;SDS011;10999;51.332;9.458;2023-11-19T11:17:42;7.35;;;1.75;;
21675;SDS011;10999;51.332;9.458;2023-11-19T11:20:11;6.30;;;1.63;;
21675;SDS011;10999;51.332;9.458;2023-11-19T11:22:44;8.70;;;1.65;;
21675;SDS011;10999;51.332;9.458;2023-11-19T11:25:27;10.77;;;1.73;;
21675;SDS011;10999;51.332;9.458;2023-11-19T11:28:18;7.57;;;1.80;;
21675;SDS011;10999;51.332;9.458;2023-11-19T11:31:09;12.38;;;1.80;;
21675;SDS011;10999;51.332;9.458;2023-11-19T11:36:30;10.13;;;1.88;;
21675;SDS011;10999;51.332;9.458;2023-11-19T11:38:58;10.52;;;1.98;;
21675;SDS011;10999;51.332;9.458;2023-11-19T11:41:27;10.93;;;1.85;;
21675;SDS011;10999;51.332;9.458;2023-11-19T11:43:55;7.70;;;1.23;;
21675;SDS011;10999;51.332;9.458;2023-11-19T11:48:59;11.35;;;1.65;;
21675;SDS011;10999;51.332;9.458;2023-11-19T11:57:04;9.02;;;2.42;;
21675;SDS011;10999;51.332;9.458;2023-11-19T12:02:11;10.55;;;2.13;;
21675;SDS011;10999;51.332;9.458;2023-11-19T12:04:40;9.27;;;1.73;;
21675;SDS011;10999;51.332;9.458;2023-11-19T12:07:15;8.10;;;1.65;;
21675;SDS011;10999;51.332;9.458;2023-11-19T12:09:47;9.55;;;1.95;;
21675;SDS011;10999;51.332;9.458;2023-11-19T12:12:18;10.60;;;1.67;;
21675;SDS011;10999;51.332;9.458;2023-11-19T12:20:11;10.15;;;2.70;;
21675;SDS011;10999;51.332;9.458;2023-11-19T12:22:38;11.75;;;1.80;;
21675;SDS011;10999;51.332;9.458;2023-11-19T12:25:06;7.60;;;2.65;;
21675;SDS011;10999;51.332;9.458;2023-11-19T12:27:33;10.40;;;1.70;;
21675;SDS011;10999;51.332;9.458;2023-11-19T12:30:03;7.97;;;1.83;;
21675;SDS011;10999;51.332;9.458;2023-11-19T12:32:37;6.18;;;1.30;;
21675;SDS011;10999;51.332;9.458;2023-11-19T12:35:05;11.98;;;1.55;;
21675;SDS011;10999;51.332;9.458;2023-11-19T12:37:32;9.05;;;1.40;;
21675;SDS011;10999;51.332;9.458;2023-11-19T12:39:59;10.52;;;1.88;;
21675;SDS011;10999;51.332;9.458;2023-11-19T12:42:36;12.57;;;2.35;;
21675;SDS011;10999;51.332;9.458;2023-11-19T12:45:03;11.10;;;1.92;;
21675;SDS011;10999;51.332;9.458;2023-11-19T12:47:31;12.88;;;2.08;;
21675;SDS011;10999;51.332;9.458;2023-11-19T12:49:57;12.10;;;1.95;;
21675;SDS011;10999;51.332;9.458;2023-11-19T12:52:24;12.88;;;2.58;;
21675;SDS011;10999;51.332;9.458;2023-11-19T12:54:51;9.10;;;1.75;;
21675;SDS011;10999;51.332;9.458;2023-11-19T12:57:18;8.70;;;2.00;;
21675;SDS011;10999;51.332;9.458;2023-11-19T12:59:54;11.48;;;1.70;;
21675;SDS011;10999;51.332;9.458;2023-11-19T13:02:44;12.07;;;1.98;;
21675;SDS011;10999;51.332;9.458;2023-11-19T13:05:23;13.50;;;2.10;;
21675;SDS011;10999;51.332;9.458;2023-11-19T13:08:01;9.20;;;1.60;;
21675;SDS011;10999;51.332;9.458;2023-11-19T13:10:32;9.73;;;1.70;;
21675;SDS011;10999;51.332;9.458;2023-11-19T13:13:16;8.85;;;1.63;;
21675;SDS011;10999;51.332;9.458;2023-11-19T13:15:42;9.00;;;2.00;;
21675;SDS011;10999;51.332;9.458;2023-11-19T13:18:12;10.60;;;1.75;;
21675;SDS011;10999;51.332;9.458;2023-11-19T13:20:40;7.43;;;1.30;;
21675;SDS011;10999;51.332;9.458;2023-11-19T13:23:07;10.27;;;1.85;;
21675;SDS011;10999;51.332;9.458;2023-11-19T13:25:34;7.50;;;1.60;;
21675;SDS011;10999;51.332;9.458;2023-11-19T13:28:00;7.65;;;1.23;;
21675;SDS011;10999;51.332;9.458;2023-11-19T13:30:28;7.82;;;1.58;;
21675;SDS011;10999;51.332;9.458;2023-11-19T13:32:55;15.50;;;3.45;;
21675;SDS011;10999;51.332;9.458;2023-11-19T13:35:22;8.02;;;2.15;;
21675;SDS011;10999;51.332;9.458;2023-11-19T13:37:49;8.80;;;1.90;;
21675;SDS011;10999;51.332;9.458;2023-11-19T13:40:17;10.63;;;1.48;;
21675;SDS011;10999;51.332;9.458;2023-11-19T13:42:45;9.48;;;1.40;;
21675;SDS011;10999;51.332;9.458;2023-11-19T13:45:12;10.18;;;1.60;;
21675;SDS011;10999;51.332;9.458;2023-11-19T13:47:40;12.70;;;1.77;;
21675;SDS011;10999;51.332;9.458;2023-11-19T13:50:11;11.77;;;2.13;;
21675;SDS011;10999;51.332;9.458;2023-11-19T13:52:40;10.93;;;1.98;;
21675;SDS011;10999;51.332;9.458;2023-11-19T13:55:08;10.55;;;1.98;;
21675;SDS011;10999;51.332;9.458;2023-11-19T13:57:36;9.48;;;1.80;;
21675;SDS011;10999;51.332;9.458;2023-11-19T14:00:04;7.60;;;1.42;;
21675;SDS011;10999;51.332;9.458;2023-11-19T14:02:45;11.45;;;2.28;;
21675;SDS011;10999;51.332;9.458;2023-11-19T14:05:16;12.25;;;1.70;;
21675;SDS011;10999;51.332;9.458;2023-11-19T14:08:02;10.55;;;1.77;;
21675;SDS011;10999;51.332;9.458;2023-11-19T14:10:36;10.30;;;1.58;;
21675;SDS011;10999;51.332;9.458;2023-11-19T14:13:05;10.93;;;1.60;;
21675;SDS011;10999;51.332;9.458;2023-11-19T14:15:32;6.78;;;1.17;;
21675;SDS011;10999;51.332;9.458;2023-11-19T14:17:59;11.20;;;1.90;;
21675;SDS011;10999;51.332;9.458;2023-11-19T14:20:26;7.10;;;1.95;;
21675;SDS011;10999;51.332;9.458;2023-11-19T14:22:53;8.95;;;1.48;;
21675;SDS011;10999;51.332;9.458;2023-11-19T14:25:20;9.20;;;1.50;;
21675;SDS011;10999;51.332;9.458;2023-11-19T14:27:47;8.90;;;1.52;;
21675;SDS011;10999;51.332;9.458;2023-11-19T14:30:14;8.65;;;1.52;;
21675;SDS011;10999;51.332;9.458;2023-11-19T14:32:42;10.30;;;1.55;;
21675;SDS011;10999;51.332;9.458;2023-11-19T14:35:13;7.97;;;1.52;;
21675;SDS011;10999;51.332;9.458;2023-11-19T14:37:39;9.07;;;1.30;;
21675;SDS011;10999;51.332;9.458;2023-11-19T14:40:06;11.43;;;1.80;;
21675;SDS011;10999;51.332;9.458;2023-11-19T14:42:36;6.65;;;1.80;;
21675;SDS011;10999;51.332;9.458;2023-11-19T14:45:05;11.77;;;1.80;;
21675;SDS011;10999;51.332;9.458;2023-11-19T14:47:33;6.03;;;1.60;;
21675;SDS011;10999;51.332;9.458;2023-11-19T14:50:00;8.93;;;1.40;;
21675;SDS011;10999;51.332;9.458;2023-11-19T14:52:27;7.03;;;1.15;;
21675;SDS011;10999;51.332;9.458;2023-11-19T14:54:53;8.68;;;1.80;;
21675;SDS011;10999;51.332;9.458;2023-11-19T14:57:22;9.27;;;1.50;;
21675;SDS011;10999;51.332;9.458;2023-11-19T14:59:49;10.27;;;1.67;;
21675;SDS011;10999;51.332;9.458;2023-11-19T15:02:16;12.60;;;2.00;;
21675;SDS011;10999;51.332;9.458;2023-11-19T15:04:44;8.93;;;1.63;;
21675;SDS011;10999;51.332;9.458;2023-11-19T15:07:11;12.32;;;1.67;;
21675;SDS011;10999;51.332;9.458;2023-11-19T15:09:38;8.38;;;2.78;;
21675;SDS011;10999;51.332;9.458;2023-11-19T15:12:05;10.73;;;2.20;;
21675;SDS011;10999;51.332;9.458;2023-11-19T15:14:32;10.52;;;1.80;;
21675;SDS011;10999;51.332;9.458;2023-11-19T15:16:58;10.40;;;1.83;;